createdAt,value
2023-02-19T00:01:42.675Z,6.70
2023-02-19T00:04:28.220Z,6.59
2023-02-19T00:07:13.798Z,6.59
2023-02-19T00:09:59.096Z,6.63
2023-02-19T00:12:44.468Z,6.76
2023-02-19T00:15:32.407Z,6.77
2023-02-19T00:18:17.918Z,6.81
2023-02-19T00:21:03.754Z,6.78
2023-02-19T00:23:53.917Z,6.64
2023-02-19T00:26:40.977Z,6.78
2023-02-19T00:29:27.356Z,6.72
2023-02-19T00:32:12.982Z,6.75
2023-02-19T00:34:58.637Z,6.62
2023-02-19T00:37:44.260Z,6.73
2023-02-19T00:40:30.053Z,6.65
2023-02-19T00:43:15.411Z,6.57
2023-02-19T00:46:00.990Z,6.57
2023-02-19T00:48:47.241Z,6.49
2023-02-19T00:51:35.840Z,6.46
2023-02-19T00:54:22.591Z,6.49
2023-02-19T00:57:07.902Z,6.47
2023-02-19T00:59:53.554Z,6.40
2023-02-19T01:02:39.242Z,6.34
2023-02-19T01:05:25.091Z,6.42
2023-02-19T01:08:10.353Z,6.40
2023-02-19T01:10:56.143Z,6.38
2023-02-19T01:13:42.462Z,6.44
2023-02-19T01:16:28.230Z,6.49
2023-02-19T01:19:14.081Z,6.49
2023-02-19T01:21:59.386Z,6.20
2023-02-19T01:24:44.762Z,6.22
2023-02-19T01:27:30.450Z,6.16
2023-02-19T01:30:15.844Z,6.05
2023-02-19T01:33:01.149Z,6.00
2023-02-19T01:35:46.499Z,5.99
2023-02-19T01:38:32.307Z,6.03
2023-02-19T01:41:22.007Z,6.08
2023-02-19T01:44:13.567Z,6.14
2023-02-19T01:46:58.905Z,6.07
2023-02-19T01:49:49.158Z,6.03
2023-02-19T01:52:36.561Z,6.00
2023-02-19T01:55:22.647Z,5.96
2023-02-19T01:58:09.659Z,6.02
2023-02-19T02:00:55.469Z,6.00
2023-02-19T02:03:43.703Z,5.99
2023-02-19T02:06:34.204Z,5.70
2023-02-19T02:09:40.740Z,5.82
2023-02-19T02:12:26.413Z,5.77
2023-02-19T02:15:12.935Z,5.68
2023-02-19T02:18:28.320Z,5.53
2023-02-19T02:21:36.157Z,5.30
2023-02-19T02:24:49.197Z,5.30
2023-02-19T02:27:56.157Z,5.49
2023-02-19T02:30:50.260Z,5.35
2023-02-19T02:33:53.348Z,5.43
2023-02-19T02:36:44.986Z,5.39
2023-02-19T02:39:32.434Z,5.42
2023-02-19T02:42:29.809Z,5.21
2023-02-19T02:45:36.591Z,5.29
2023-02-19T02:48:31.127Z,5.27
2023-02-19T02:51:35.905Z,5.15
2023-02-19T02:54:47.526Z,5.22
2023-02-19T02:57:33.114Z,5.23
2023-02-19T03:00:18.739Z,5.24
2023-02-19T03:03:05.354Z,5.31
2023-02-19T03:05:53.037Z,5.18
2023-02-19T03:08:43.876Z,5.11
2023-02-19T03:11:50.894Z,5.21
2023-02-19T03:15:02.596Z,5.25
2023-02-19T03:18:11.474Z,5.21
2023-02-19T03:20:58.420Z,5.23
2023-02-19T03:24:03.896Z,5.36
2023-02-19T03:26:53.922Z,5.02
2023-02-19T03:29:41.960Z,5.15
2023-02-19T03:32:32.437Z,5.13
2023-02-19T03:35:22.012Z,5.15
2023-02-19T03:38:18.384Z,5.10
2023-02-19T03:41:35.157Z,5.17
2023-02-19T03:44:46.370Z,5.04
2023-02-19T03:48:06.687Z,5.03
2023-02-19T03:51:02.010Z,5.19
2023-02-19T03:53:54.717Z,5.16
2023-02-19T03:56:52.854Z,5.13
2023-02-19T03:59:43.662Z,5.10
2023-02-19T04:02:35.413Z,5.15
2023-02-19T04:05:27.033Z,5.18
2023-02-19T04:08:19.160Z,5.32
2023-02-19T04:11:06.017Z,5.35
2023-02-19T04:13:58.542Z,5.08
2023-02-19T04:16:49.377Z,5.07
2023-02-19T04:19:39.697Z,4.94
2023-02-19T04:22:25.660Z,4.94
2023-02-19T04:25:11.429Z,4.96
2023-02-19T04:27:56.709Z,4.88
2023-02-19T04:30:43.693Z,4.82
2023-02-19T04:33:29.259Z,4.80
2023-02-19T04:36:14.636Z,4.96
2023-02-19T04:39:00.446Z,5.03
2023-02-19T04:41:46.045Z,4.84
2023-02-19T04:44:33.164Z,5.02
2023-02-19T04:47:18.893Z,4.98
2023-02-19T04:50:04.553Z,5.11
2023-02-19T04:52:50.101Z,4.95
2023-02-19T04:55:39.476Z,4.86
2023-02-19T04:58:24.981Z,4.63
2023-02-19T05:01:11.613Z,4.68
2023-02-19T05:03:57.113Z,4.65
2023-02-19T05:06:42.361Z,4.49
2023-02-19T05:09:27.995Z,4.79
2023-02-19T05:12:13.640Z,4.86
2023-02-19T05:14:59.124Z,4.80
2023-02-19T05:17:44.583Z,4.79
2023-02-19T05:20:30.280Z,4.77
2023-02-19T05:23:15.521Z,4.67
2023-02-19T05:26:05.681Z,4.52
2023-02-19T05:28:53.039Z,4.49
2023-02-19T05:31:38.667Z,4.44
2023-02-19T05:34:24.279Z,4.42
2023-02-19T05:37:09.790Z,4.49
2023-02-19T05:39:55.128Z,4.44
2023-02-19T05:42:40.530Z,4.39
2023-02-19T05:45:26.400Z,4.52
2023-02-19T05:48:12.644Z,4.46
2023-02-19T05:51:05.626Z,4.30
2023-02-19T05:53:52.594Z,4.37
2023-02-19T05:56:39.804Z,4.16
2023-02-19T05:59:26.511Z,4.20
2023-02-19T06:02:11.876Z,4.20
2023-02-19T06:04:57.256Z,4.10
2023-02-19T06:07:42.894Z,3.99
2023-02-19T06:10:28.617Z,4.02
2023-02-19T06:13:15.427Z,4.04
2023-02-19T06:16:06.144Z,4.04
2023-02-19T06:18:51.845Z,3.87
2023-02-19T06:21:37.652Z,3.85
2023-02-19T06:24:22.981Z,3.85
2023-02-19T06:27:09.338Z,3.77
2023-02-19T06:29:55.203Z,3.66
2023-02-19T06:32:40.737Z,3.50
2023-02-19T06:35:26.343Z,3.59
2023-02-19T06:38:11.993Z,3.57
2023-02-19T06:41:01.981Z,3.75
2023-02-19T06:43:47.539Z,3.62
2023-02-19T06:46:33.149Z,3.60
2023-02-19T06:49:18.647Z,3.56
2023-02-19T06:52:04.174Z,3.47
2023-02-19T06:54:49.481Z,3.57
2023-02-19T06:57:34.814Z,3.54
2023-02-19T07:00:20.281Z,3.48
2023-02-19T07:03:05.732Z,3.45
2023-02-19T07:05:51.651Z,3.43
2023-02-19T07:08:37.305Z,3.63
2023-02-19T07:11:23.717Z,3.82
2023-02-19T07:14:15.071Z,3.87
2023-02-19T07:17:00.879Z,3.86
2023-02-19T07:19:46.524Z,4.15
2023-02-19T07:22:31.779Z,4.42
2023-02-19T07:25:17.314Z,4.50
2023-02-19T07:28:02.699Z,4.67
2023-02-19T07:30:48.467Z,4.79
2023-02-19T07:33:33.804Z,4.97
2023-02-19T07:36:20.693Z,5.18
2023-02-19T07:39:07.170Z,5.53
2023-02-19T07:41:53.723Z,6.28
2023-02-19T07:44:39.460Z,6.45
2023-02-19T07:47:25.017Z,5.95
2023-02-19T07:50:12.390Z,5.88
2023-02-19T07:52:59.809Z,6.41
2023-02-19T07:55:45.199Z,7.13
2023-02-19T07:58:30.956Z,7.57
2023-02-19T08:01:19.710Z,8.36
2023-02-19T08:04:05.349Z,9.13
2023-02-19T08:06:52.818Z,9.14
2023-02-19T08:09:38.271Z,8.88
2023-02-19T08:12:42.167Z,8.07
2023-02-19T08:15:27.785Z,8.00
2023-02-19T08:18:16.284Z,7.89
2023-02-19T08:21:01.941Z,8.54
2023-02-19T08:23:49.928Z,9.44
2023-02-19T08:26:37.183Z,10.16
2023-02-19T08:29:22.679Z,10.53
2023-02-19T08:32:08.312Z,10.61
2023-02-19T08:34:53.940Z,11.71
2023-02-19T08:37:39.457Z,12.70
2023-02-19T08:40:26.037Z,12.98
2023-02-19T08:43:13.880Z,13.47
2023-02-19T08:45:59.423Z,12.93
2023-02-19T08:48:45.182Z,12.44
2023-02-19T08:51:30.626Z,13.44
2023-02-19T08:54:16.144Z,14.84
2023-02-19T08:57:01.864Z,16.20
2023-02-19T08:59:47.309Z,16.82
2023-02-19T09:02:33.313Z,16.90
2023-02-19T09:05:18.690Z,18.16
2023-02-19T09:08:04.400Z,16.91
2023-02-19T09:11:04.546Z,17.24
2023-02-19T09:13:49.959Z,16.39
2023-02-19T09:16:36.578Z,16.49
2023-02-19T09:19:22.106Z,17.89
2023-02-19T09:22:07.778Z,18.13
2023-02-19T09:24:53.101Z,16.46
2023-02-19T09:27:38.467Z,17.44
2023-02-19T09:30:24.642Z,17.19
2023-02-19T09:33:10.119Z,18.44
2023-02-19T09:35:59.456Z,18.19
2023-02-19T09:38:45.078Z,18.14
2023-02-19T09:41:47.067Z,18.16
2023-02-19T09:44:35.958Z,18.33
2023-02-19T09:47:27.810Z,17.93
2023-02-19T09:50:20.549Z,17.42
2023-02-19T09:53:18.879Z,17.55
2023-02-19T09:56:04.726Z,18.02
2023-02-19T09:58:53.972Z,18.49
2023-02-19T10:01:40.607Z,18.95
2023-02-19T10:04:27.044Z,17.83
2023-02-19T10:07:15.290Z,19.26
2023-02-19T10:10:24.494Z,18.75
2023-02-19T10:13:22.095Z,17.91
2023-02-19T10:16:16.051Z,17.44
2023-02-19T10:19:01.853Z,18.31
2023-02-19T10:21:47.475Z,17.95
2023-02-19T10:24:33.001Z,17.23
2023-02-19T10:27:19.122Z,17.99
2023-02-19T10:30:05.988Z,16.73
2023-02-19T10:33:00.744Z,13.64
2023-02-19T10:35:53.444Z,12.77
2023-02-19T10:38:45.303Z,12.04
2023-02-19T10:41:31.313Z,14.75
2023-02-19T10:44:24.148Z,14.26
2023-02-19T10:47:16.453Z,14.12
2023-02-19T10:50:04.475Z,13.35
2023-02-19T10:52:58.372Z,14.72
2023-02-19T10:55:45.820Z,13.93
2023-02-19T10:58:34.403Z,12.10
2023-02-19T11:01:21.106Z,13.26
2023-02-19T11:04:17.837Z,13.59
2023-02-19T11:07:11.077Z,13.00
2023-02-19T11:09:58.328Z,15.57
2023-02-19T11:12:49.125Z,17.58
2023-02-19T11:15:36.357Z,18.87
2023-02-19T11:18:25.176Z,19.21
2023-02-19T11:21:27.998Z,20.38
2023-02-19T11:24:25.156Z,19.90
2023-02-19T11:27:19.166Z,18.48
2023-02-19T11:30:22.442Z,19.95
2023-02-19T11:33:16.912Z,18.25
2023-02-19T11:36:32.941Z,17.99
2023-02-19T11:39:18.278Z,21.04
2023-02-19T11:42:26.286Z,22.04
2023-02-19T11:45:27.725Z,20.04
2023-02-19T11:48:31.082Z,21.68
2023-02-19T11:51:53.206Z,21.82
2023-02-19T11:54:54.458Z,20.52
2023-02-19T11:57:44.640Z,19.59
2023-02-19T12:00:31.365Z,17.68
2023-02-19T12:03:31.954Z,20.07
2023-02-19T12:06:44.569Z,21.53
2023-02-19T12:10:14.639Z,23.68
2023-02-19T12:13:27.424Z,22.93
2023-02-19T12:16:43.472Z,20.66
2023-02-19T12:19:43.948Z,22.01
2023-02-19T12:22:54.168Z,22.09
2023-02-19T12:25:47.630Z,20.02
2023-02-19T12:29:00.764Z,20.52
2023-02-19T12:32:21.176Z,17.35
2023-02-19T12:35:28.037Z,18.23
2023-02-19T12:38:19.352Z,15.73
2023-02-19T12:41:14.884Z,17.17
2023-02-19T12:44:09.323Z,16.89
2023-02-19T12:47:01.187Z,19.12
2023-02-19T12:50:02.320Z,18.21
2023-02-19T12:52:53.308Z,19.14
2023-02-19T12:55:43.250Z,20.89
2023-02-19T12:58:35.485Z,22.79
2023-02-19T13:01:28.212Z,22.26
2023-02-19T13:04:29.874Z,21.02
2023-02-19T13:07:30.764Z,21.85
2023-02-19T13:10:31.583Z,22.26
2023-02-19T13:13:28.558Z,23.55
2023-02-19T13:16:19.052Z,23.15
2023-02-19T13:19:05.472Z,23.04
2023-02-19T13:22:21.669Z,22.10
2023-02-19T13:25:09.336Z,22.41
2023-02-19T13:28:09.056Z,21.35
2023-02-19T13:31:06.627Z,20.82
2023-02-19T13:34:27.562Z,20.65
2023-02-19T13:37:13.284Z,20.73
2023-02-19T13:40:04.450Z,21.53
2023-02-19T13:42:56.120Z,21.70
2023-02-19T13:45:44.913Z,22.18
2023-02-19T13:48:33.210Z,21.19
2023-02-19T13:51:19.485Z,21.26
2023-02-19T13:54:19.683Z,21.69
2023-02-19T13:57:28.482Z,21.63
2023-02-19T14:00:49.660Z,19.08
2023-02-19T14:03:37.773Z,19.03
2023-02-19T14:06:22.970Z,17.45
2023-02-19T14:09:34.324Z,19.21
2023-02-19T14:12:22.803Z,18.19
2023-02-19T14:15:39.084Z,17.95
2023-02-19T14:18:45.739Z,18.80
2023-02-19T14:21:39.853Z,18.56
2023-02-19T14:24:25.814Z,16.71
2023-02-19T14:27:11.965Z,17.06
2023-02-19T14:29:57.790Z,16.80
2023-02-19T14:32:45.130Z,16.57
2023-02-19T14:35:43.279Z,16.76
2023-02-19T14:38:35.601Z,17.14
2023-02-19T14:41:24.872Z,18.79
2023-02-19T14:44:18.784Z,19.31
2023-02-19T14:47:09.310Z,19.25
2023-02-19T14:50:07.149Z,18.15
2023-02-19T14:52:57.580Z,18.84
2023-02-19T14:55:45.932Z,18.16
2023-02-19T14:58:33.749Z,16.03
2023-02-19T15:01:26.535Z,14.68
2023-02-19T15:04:23.716Z,12.73
2023-02-19T15:07:15.804Z,11.73
2023-02-19T15:10:05.673Z,11.78
2023-02-19T15:12:54.738Z,11.18
2023-02-19T15:15:44.833Z,10.60
2023-02-19T15:18:35.518Z,10.55
2023-02-19T15:21:32.918Z,10.14
2023-02-19T15:24:19.249Z,10.42
2023-02-19T15:27:05.294Z,10.01
2023-02-19T15:29:53.672Z,9.80
2023-02-19T15:32:39.409Z,9.81
2023-02-19T15:35:27.187Z,10.20
2023-02-19T15:38:12.550Z,10.30
2023-02-19T15:40:58.505Z,10.07
2023-02-19T15:43:51.080Z,9.91
2023-02-19T15:46:38.133Z,9.83
2023-02-19T15:49:35.866Z,9.63
2023-02-19T15:52:35.778Z,9.48
2023-02-19T15:55:30.687Z,9.36
2023-02-19T15:58:54.349Z,9.35
2023-02-19T16:01:40.277Z,9.25
2023-02-19T16:04:25.899Z,9.09
2023-02-19T16:07:24.072Z,8.78
2023-02-19T16:10:22.701Z,8.48
2023-02-19T16:13:11.668Z,8.38
2023-02-19T16:16:09.268Z,8.26
2023-02-19T16:18:54.711Z,8.19
2023-02-19T16:21:44.017Z,8.08
2023-02-19T16:24:42.000Z,7.98
2023-02-19T16:27:32.736Z,7.70
2023-02-19T16:30:18.787Z,7.47
2023-02-19T16:33:41.848Z,7.49
2023-02-19T16:36:33.127Z,7.38
2023-02-19T16:39:20.356Z,7.29
2023-02-19T16:42:08.557Z,7.20
2023-02-19T16:44:53.829Z,7.00
2023-02-19T16:47:41.723Z,6.93
2023-02-19T16:50:27.693Z,6.78
2023-02-19T16:53:24.703Z,6.74
2023-02-19T16:56:18.370Z,6.86
2023-02-19T16:59:03.874Z,6.66
2023-02-19T17:01:49.152Z,6.51
2023-02-19T17:04:34.810Z,6.42
2023-02-19T17:07:21.343Z,6.45
2023-02-19T17:10:06.675Z,6.44
2023-02-19T17:12:53.901Z,6.32
2023-02-19T17:15:39.375Z,6.35
2023-02-19T17:18:25.003Z,6.28
2023-02-19T17:21:16.057Z,6.19
2023-02-19T17:24:01.427Z,6.11
2023-02-19T17:26:46.779Z,6.04
2023-02-19T17:29:33.878Z,5.86
2023-02-19T17:32:19.301Z,5.75
2023-02-19T17:35:05.600Z,5.69
2023-02-19T17:37:53.306Z,5.80
2023-02-19T17:40:39.144Z,5.59
2023-02-19T17:43:25.493Z,5.52
2023-02-19T17:46:17.658Z,5.48
2023-02-19T17:49:03.533Z,5.39
2023-02-19T17:51:48.865Z,5.29
2023-02-19T17:54:34.289Z,5.26
2023-02-19T17:57:19.726Z,5.22
2023-02-19T18:00:06.170Z,5.25
2023-02-19T18:02:51.484Z,5.21
2023-02-19T18:05:36.923Z,5.19
2023-02-19T18:08:22.357Z,5.32
2023-02-19T18:11:07.998Z,5.38
2023-02-19T18:13:53.113Z,5.45
2023-02-19T18:16:45.038Z,5.39
2023-02-19T18:19:30.310Z,5.49
2023-02-19T18:22:16.000Z,5.58
2023-02-19T18:25:01.199Z,5.72
2023-02-19T18:27:47.056Z,5.79
2023-02-19T18:30:32.948Z,5.82
2023-02-19T18:33:18.560Z,6.00
2023-02-19T18:36:04.302Z,5.97
2023-02-19T18:38:49.882Z,6.19
2023-02-19T18:41:35.306Z,6.18
2023-02-19T18:44:23.109Z,6.32
2023-02-19T18:47:08.814Z,6.37
2023-02-19T18:49:56.525Z,6.37
2023-02-19T18:52:42.394Z,6.29
2023-02-19T18:55:27.667Z,6.35
2023-02-19T18:58:13.187Z,6.33
2023-02-19T19:00:59.405Z,6.40
2023-02-19T19:03:45.155Z,6.24
2023-02-19T19:06:30.781Z,6.32
2023-02-19T19:09:16.136Z,6.28
2023-02-19T19:12:01.445Z,6.28
2023-02-19T19:14:47.114Z,6.35
2023-02-19T19:17:32.698Z,6.46
2023-02-19T19:20:20.136Z,6.33
2023-02-19T19:23:06.256Z,6.43
2023-02-19T19:25:51.537Z,6.49
2023-02-19T19:28:38.216Z,6.42
2023-02-19T19:31:24.935Z,6.48
2023-02-19T19:34:11.581Z,6.43
2023-02-19T19:36:57.139Z,6.52
2023-02-19T19:39:43.832Z,6.46
2023-02-19T19:42:29.544Z,6.56
2023-02-19T19:45:15.298Z,6.59
2023-02-19T19:48:00.782Z,6.53
2023-02-19T19:50:46.297Z,6.50
2023-02-19T19:53:31.889Z,6.48
2023-02-19T19:56:17.545Z,6.44
2023-02-19T19:59:03.123Z,6.48
2023-02-19T20:01:51.282Z,6.38
2023-02-19T20:04:36.672Z,6.47
2023-02-19T20:07:22.014Z,6.46
2023-02-19T20:10:10.977Z,6.37
2023-02-19T20:12:56.670Z,6.18
2023-02-19T20:15:42.343Z,6.17
2023-02-19T20:18:28.210Z,6.18
2023-02-19T20:21:13.750Z,6.10
2023-02-19T20:23:59.764Z,6.20
2023-02-19T20:26:45.446Z,5.96
2023-02-19T20:29:33.263Z,5.79
2023-02-19T20:32:18.889Z,5.82
2023-02-19T20:35:04.166Z,5.66
2023-02-19T20:37:49.648Z,5.58
2023-02-19T20:40:36.125Z,5.50
2023-02-19T20:43:21.673Z,5.36
2023-02-19T20:46:07.751Z,5.48
2023-02-19T20:48:53.259Z,5.52
2023-02-19T20:52:06.065Z,5.36
2023-02-19T20:54:56.549Z,5.29
2023-02-19T20:57:42.340Z,5.22
2023-02-19T21:00:27.699Z,5.19
2023-02-19T21:03:12.989Z,5.21
2023-02-19T21:05:58.593Z,5.15
2023-02-19T21:08:43.951Z,5.20
2023-02-19T21:11:29.441Z,5.21
2023-02-19T21:14:15.416Z,5.23
2023-02-19T21:17:01.006Z,5.17
2023-02-19T21:19:49.310Z,5.05
2023-02-19T21:22:35.767Z,5.20
2023-02-19T21:25:21.307Z,5.17
2023-02-19T21:28:09.016Z,5.10
2023-02-19T21:30:54.719Z,5.21
2023-02-19T21:33:40.262Z,5.22
2023-02-19T21:36:25.918Z,5.34
2023-02-19T21:39:14.069Z,5.26
2023-02-19T21:42:00.136Z,5.37
2023-02-19T21:44:45.932Z,5.30
2023-02-19T21:47:31.416Z,5.42
2023-02-19T21:50:16.909Z,5.34
2023-02-19T21:53:02.334Z,5.30
2023-02-19T21:55:58.284Z,5.31
2023-02-19T21:58:43.828Z,5.19
2023-02-19T22:01:33.344Z,5.11
2023-02-19T22:04:21.672Z,5.24
2023-02-19T22:07:06.953Z,5.20
2023-02-19T22:09:52.431Z,5.32
2023-02-19T22:12:37.803Z,5.19
2023-02-19T22:15:23.162Z,5.24
2023-02-19T22:18:08.401Z,5.34
2023-02-19T22:20:54.014Z,5.32
2023-02-19T22:23:39.277Z,5.44
2023-02-19T22:26:28.246Z,5.56
2023-02-19T22:29:15.152Z,5.59
2023-02-19T22:32:00.565Z,5.56
2023-02-19T22:34:46.301Z,5.72
2023-02-19T22:37:31.655Z,5.67
2023-02-19T22:40:17.244Z,5.59
2023-02-19T22:43:02.986Z,5.65
2023-02-19T22:45:48.370Z,5.52
2023-02-19T22:48:33.773Z,5.58
2023-02-19T22:51:21.518Z,5.62
2023-02-19T22:54:06.997Z,5.60
2023-02-19T22:56:53.775Z,5.63
2023-02-19T22:59:39.416Z,5.73
2023-02-19T23:02:25.128Z,5.77
2023-02-19T23:05:10.491Z,5.66
2023-02-19T23:07:56.196Z,5.76
2023-02-19T23:10:41.937Z,5.72
2023-02-19T23:13:27.440Z,5.71
2023-02-19T23:16:13.075Z,5.61
2023-02-19T23:18:59.003Z,5.49
2023-02-19T23:21:45.130Z,5.61
2023-02-19T23:24:31.139Z,5.56
2023-02-19T23:27:16.369Z,5.57
2023-02-19T23:30:01.729Z,5.55
2023-02-19T23:32:47.251Z,5.61
2023-02-19T23:35:32.792Z,5.54
2023-02-19T23:38:18.479Z,5.50
2023-02-19T23:41:08.525Z,5.66
2023-02-19T23:43:54.174Z,5.69
2023-02-19T23:46:39.838Z,5.66
2023-02-19T23:49:25.512Z,5.68
2023-02-19T23:52:10.940Z,5.58
2023-02-19T23:54:56.514Z,5.55
2023-02-19T23:57:42.634Z,5.47
